PWSweather.com
Personal Weather Stations
Station Observations

YeovilGB

Lat: 50.949, Lon: -2.627

Elevation: 70

Station Type: Vantage Pro

http://www.yeovil-weather.me.uk/

High Low Average
Temperature 53.4°F11.9°C 40.8°F4.9°C 49.2°F9.6°C
Dew Point 51.8°F11.0°C 39.7°F4.3°C 48.0°F8.9°C
Winds 5.8 mph 9.3 kmh Calm Calm Calm SWCalm SW
Wind Gusts 8.1 mph13.0 kmh -- 1.0 mph1.6 kmh
Humidity 98% 92% 96%
Pressure 30.62 in1036.9 mb 30.57 in1035.2 mb -
Precipitation 0.00 in0.0 mm - -
Hour Temp Dew Point Humidity Winds Wind Gusts Pressure Precip Precip Rate Daily Precip Total
12:00 AM 40.8°F4.9°C 39.7°F4.3°C 96% Calm Calm -- 30.59 in1035.9 mb - 0.00 in0.0 mm 0.00 in0.0 mm
12:10 AM 41.0°F5.0°C 39.9°F4.4°C 96% Calm Calm -- 30.59 in1035.9 mb - 0.00 in0.0 mm 0.00 in0.0 mm
12:20 AM 42.3°F5.7°C 41.5°F5.3°C 97% Calm Calm -- 30.59 in1035.9 mb - 0.00 in0.0 mm 0.00 in0.0 mm
12:30 AM 42.9°F6.1°C 42.3°F5.7°C 98% Calm Calm -- 30.59 in1035.9 mb - 0.00 in0.0 mm 0.00 in0.0 mm
12:40 AM 43.1°F6.2°C 42.3°F5.7°C 97% Calm Calm -- 30.59 in1035.9 mb - 0.00 in0.0 mm 0.00 in0.0 mm
12:50 AM 43.1°F6.2°C 42.3°F5.7°C 97% Calm Calm -- 30.59 in1035.9 mb - 0.00 in0.0 mm 0.00 in0.0 mm
01:00 AM 43.1°F6.2°C 42.3°F5.7°C 97% Calm Calm -- 30.59 in1035.9 mb - 0.00 in0.0 mm 0.00 in0.0 mm
01:10 AM 43.0°F6.1°C 42.2°F5.7°C 97% Calm Calm -- 30.59 in1035.9 mb - 0.00 in0.0 mm 0.00 in0.0 mm
01:20 AM 43.3°F6.3°C 42.5°F5.8°C 97% Calm Calm -- 30.59 in1035.9 mb - 0.00 in0.0 mm 0.00 in0.0 mm
01:30 AM 43.9°F6.6°C 43.1°F6.2°C 97% Calm Calm -- 30.59 in1035.9 mb - 0.00 in0.0 mm 0.00 in0.0 mm
01:40 AM 44.4°F6.9°C 43.6°F6.4°C 97% Calm Calm -- 30.59 in1035.9 mb - 0.00 in0.0 mm 0.00 in0.0 mm
01:50 AM 44.9°F7.2°C 44.1°F6.7°C 97% 1.2 mph SW1.9 kmh SW 2.3 mph3.7 kmh 30.59 in1035.9 mb - 0.00 in0.0 mm 0.00 in0.0 mm
02:00 AM 45.2°F7.3°C 44.4°F6.9°C 97% Calm Calm -- 30.59 in1035.9 mb - 0.00 in0.0 mm 0.00 in0.0 mm
02:10 AM 45.3°F7.4°C 44.5°F6.9°C 97% Calm Calm -- 30.59 in1035.9 mb - 0.00 in0.0 mm 0.00 in0.0 mm
02:20 AM 45.2°F7.3°C 44.4°F6.9°C 97% Calm Calm -- 30.59 in1035.9 mb - 0.00 in0.0 mm 0.00 in0.0 mm
02:30 AM 45.1°F7.3°C 44.3°F6.8°C 97% Calm Calm -- 30.58 in1035.6 mb - 0.00 in0.0 mm 0.00 in0.0 mm
02:40 AM 45.0°F7.2°C 44.2°F6.8°C 97% Calm Calm -- 30.58 in1035.6 mb - 0.00 in0.0 mm 0.00 in0.0 mm
02:50 AM 45.0°F7.2°C 44.2°F6.8°C 97% Calm Calm -- 30.58 in1035.6 mb - 0.00 in0.0 mm 0.00 in0.0 mm
03:10 AM 45.2°F7.3°C 44.4°F6.9°C 97% Calm Calm -- 30.58 in1035.6 mb - 0.00 in0.0 mm 0.00 in0.0 mm
03:20 AM 45.3°F7.4°C 44.5°F6.9°C 97% Calm Calm -- 30.58 in1035.6 mb - 0.00 in0.0 mm 0.00 in0.0 mm
03:30 AM 45.3°F7.4°C 44.5°F6.9°C 97% Calm Calm -- 30.58 in1035.6 mb - 0.00 in0.0 mm 0.00 in0.0 mm
03:40 AM 45.5°F7.5°C 44.7°F7.1°C 97% Calm Calm -- 30.58 in1035.6 mb - 0.00 in0.0 mm 0.00 in0.0 mm
03:50 AM 45.6°F7.6°C 44.8°F7.1°C 97% Calm Calm -- 30.58 in1035.6 mb - 0.00 in0.0 mm 0.00 in0.0 mm
04:00 AM 45.7°F7.6°C 44.9°F7.2°C 97% Calm Calm -- 30.58 in1035.6 mb - 0.00 in0.0 mm 0.00 in0.0 mm
04:10 AM 45.8°F7.7°C 45.0°F7.2°C 97% Calm Calm -- 30.58 in1035.6 mb - 0.00 in0.0 mm 0.00 in0.0 mm
04:20 AM 45.9°F7.7°C 45.1°F7.3°C 97% Calm Calm -- 30.58 in1035.6 mb - 0.00 in0.0 mm 0.00 in0.0 mm
04:30 AM 45.9°F7.7°C 45.1°F7.3°C 97% Calm Calm -- 30.58 in1035.6 mb - 0.00 in0.0 mm 0.00 in0.0 mm
04:40 AM 45.8°F7.7°C 45.0°F7.2°C 97% Calm Calm -- 30.57 in1035.2 mb - 0.00 in0.0 mm 0.00 in0.0 mm
04:50 AM 45.7°F7.6°C 44.9°F7.2°C 97% Calm Calm -- 30.57 in1035.2 mb - 0.00 in0.0 mm 0.00 in0.0 mm
05:00 AM 45.6°F7.6°C 44.8°F7.1°C 97% Calm Calm -- 30.57 in1035.2 mb - 0.00 in0.0 mm 0.00 in0.0 mm
05:10 AM 45.5°F7.5°C 44.7°F7.1°C 97% Calm Calm -- 30.57 in1035.2 mb - 0.00 in0.0 mm 0.00 in0.0 mm
05:20 AM 45.5°F7.5°C 44.7°F7.1°C 97% Calm Calm -- 30.57 in1035.2 mb - 0.00 in0.0 mm 0.00 in0.0 mm
05:30 AM 45.5°F7.5°C 44.7°F7.1°C 97% Calm Calm -- 30.57 in1035.2 mb - 0.00 in0.0 mm 0.00 in0.0 mm
05:40 AM 45.2°F7.3°C 44.4°F6.9°C 97% Calm Calm -- 30.57 in1035.2 mb - 0.00 in0.0 mm 0.00 in0.0 mm
05:50 AM 45.4°F7.4°C 44.6°F7.0°C 97% Calm Calm -- 30.57 in1035.2 mb - 0.00 in0.0 mm 0.00 in0.0 mm
06:00 AM 45.4°F7.4°C 44.6°F7.0°C 97% Calm Calm -- 30.57 in1035.2 mb - 0.00 in0.0 mm 0.00 in0.0 mm
06:10 AM 45.4°F7.4°C 44.6°F7.0°C 97% Calm Calm -- 30.58 in1035.6 mb - 0.00 in0.0 mm 0.00 in0.0 mm
06:20 AM 45.5°F7.5°C 44.7°F7.1°C 97% Calm Calm -- 30.57 in1035.2 mb - 0.00 in0.0 mm 0.00 in0.0 mm
06:30 AM 45.6°F7.6°C 44.8°F7.1°C 97% Calm Calm -- 30.57 in1035.2 mb - 0.00 in0.0 mm 0.00 in0.0 mm
06:40 AM 45.8°F7.7°C 45.0°F7.2°C 97% Calm Calm -- 30.58 in1035.6 mb - 0.00 in0.0 mm 0.00 in0.0 mm
06:50 AM 45.8°F7.7°C 45.0°F7.2°C 97% Calm Calm 2.3 mph3.7 kmh 30.58 in1035.6 mb - 0.00 in0.0 mm 0.00 in0.0 mm
07:00 AM 46.0°F7.8°C 45.2°F7.3°C 97% Calm Calm -- 30.59 in1035.9 mb - 0.00 in0.0 mm 0.00 in0.0 mm
07:10 AM 46.0°F7.8°C 45.2°F7.3°C 97% Calm Calm 1.2 mph1.9 kmh 30.59 in1035.9 mb - 0.00 in0.0 mm 0.00 in0.0 mm
07:20 AM 46.5°F8.1°C 46.0°F7.8°C 98% Calm Calm 1.2 mph1.9 kmh 30.59 in1035.9 mb - 0.00 in0.0 mm 0.00 in0.0 mm
07:30 AM 46.7°F8.2°C 45.9°F7.7°C 97% Calm Calm 1.2 mph1.9 kmh 30.59 in1035.9 mb - 0.00 in0.0 mm 0.00 in0.0 mm
07:40 AM 46.6°F8.1°C 45.8°F7.7°C 97% 1.2 mph SW1.9 kmh SW 3.5 mph5.6 kmh 30.59 in1035.9 mb - 0.00 in0.0 mm 0.00 in0.0 mm
07:50 AM 46.5°F8.1°C 45.7°F7.6°C 97% Calm Calm -- 30.59 in1035.9 mb - 0.00 in0.0 mm 0.00 in0.0 mm
08:00 AM 46.4°F8.0°C 45.6°F7.6°C 97% Calm Calm -- 30.59 in1035.9 mb - 0.00 in0.0 mm 0.00 in0.0 mm
08:10 AM 46.4°F8.0°C 45.6°F7.6°C 97% Calm Calm -- 30.60 in1036.2 mb - 0.00 in0.0 mm 0.00 in0.0 mm
08:20 AM 46.5°F8.1°C 45.7°F7.6°C 97% Calm Calm 1.2 mph1.9 kmh 30.60 in1036.2 mb - 0.00 in0.0 mm 0.00 in0.0 mm
08:30 AM 46.6°F8.1°C 45.8°F7.7°C 97% Calm Calm -- 30.60 in1036.2 mb - 0.00 in0.0 mm 0.00 in0.0 mm
08:40 AM 46.6°F8.1°C 45.8°F7.7°C 97% Calm Calm -- 30.60 in1036.2 mb - 0.00 in0.0 mm 0.00 in0.0 mm
08:50 AM 46.7°F8.2°C 46.2°F7.9°C 98% Calm Calm -- 30.61 in1036.6 mb - 0.00 in0.0 mm 0.00 in0.0 mm
09:00 AM 46.9°F8.3°C 46.4°F8.0°C 98% Calm Calm 3.5 mph5.6 kmh 30.60 in1036.2 mb - 0.00 in0.0 mm 0.00 in0.0 mm
09:10 AM 47.3°F8.5°C 46.7°F8.2°C 98% Calm Calm 3.5 mph5.6 kmh 30.61 in1036.6 mb - 0.00 in0.0 mm 0.00 in0.0 mm
09:20 AM 47.6°F8.7°C 47.1°F8.4°C 98% 2.3 mph SW3.7 kmh SW 3.5 mph5.6 kmh 30.61 in1036.6 mb - 0.00 in0.0 mm 0.00 in0.0 mm
09:30 AM 47.9°F8.8°C 47.4°F8.6°C 98% 2.3 mph SW3.7 kmh SW 4.6 mph7.4 kmh 30.61 in1036.6 mb - 0.00 in0.0 mm 0.00 in0.0 mm
09:40 AM 48.1°F8.9°C 47.6°F8.7°C 98% 2.3 mph SW3.7 kmh SW 4.6 mph7.4 kmh 30.61 in1036.6 mb - 0.00 in0.0 mm 0.00 in0.0 mm
09:50 AM 48.2°F9.0°C 47.7°F8.7°C 98% Calm Calm 1.2 mph1.9 kmh 30.62 in1036.9 mb - 0.00 in0.0 mm 0.00 in0.0 mm
10:00 AM 48.3°F9.1°C 47.8°F8.8°C 98% Calm Calm 1.2 mph1.9 kmh 30.62 in1036.9 mb - 0.00 in0.0 mm 0.00 in0.0 mm
10:10 AM 48.5°F9.2°C 47.9°F8.8°C 98% Calm Calm 3.5 mph5.6 kmh 30.62 in1036.9 mb - 0.00 in0.0 mm 0.00 in0.0 mm
10:20 AM 48.7°F9.3°C 48.2°F9.0°C 98% Calm Calm -- 30.62 in1036.9 mb - 0.00 in0.0 mm 0.00 in0.0 mm
10:30 AM 49.0°F9.4°C 48.5°F9.2°C 98% 1.2 mph SSW1.9 kmh SSW -- 30.62 in1036.9 mb - 0.00 in0.0 mm 0.00 in0.0 mm
10:40 AM 49.3°F9.6°C 48.8°F9.3°C 98% Calm Calm -- 30.62 in1036.9 mb - 0.00 in0.0 mm 0.00 in0.0 mm
10:50 AM 49.6°F9.8°C 49.1°F9.5°C 98% 1.2 mph SW1.9 kmh SW 5.8 mph9.3 kmh 30.61 in1036.6 mb - 0.00 in0.0 mm 0.00 in0.0 mm
11:00 AM 50.3°F10.2°C 49.7°F9.8°C 98% 1.2 mph SW1.9 kmh SW 3.5 mph5.6 kmh 30.61 in1036.6 mb - 0.00 in0.0 mm 0.00 in0.0 mm
11:10 AM 50.6°F10.3°C 50.1°F10.1°C 98% Calm Calm 8.1 mph13.0 kmh 30.61 in1036.6 mb - 0.00 in0.0 mm 0.00 in0.0 mm
11:20 AM 50.7°F10.4°C 50.1°F10.1°C 98% 1.2 mph SSW1.9 kmh SSW 4.6 mph7.4 kmh 30.61 in1036.6 mb - 0.00 in0.0 mm 0.00 in0.0 mm
11:30 AM 50.7°F10.4°C 50.1°F10.1°C 98% 2.3 mph SW3.7 kmh SW 5.8 mph9.3 kmh 30.61 in1036.6 mb - 0.00 in0.0 mm 0.00 in0.0 mm
11:40 AM 50.8°F10.4°C 50.0°F10.0°C 97% 3.5 mph SSW5.6 kmh SSW 5.8 mph9.3 kmh 30.60 in1036.2 mb - 0.00 in0.0 mm 0.00 in0.0 mm
11:50 AM 50.9°F10.5°C 50.4°F10.2°C 98% 5.8 mph SW9.3 kmh SW 6.9 mph11.1 kmh 30.60 in1036.2 mb - 0.00 in0.0 mm 0.00 in0.0 mm
12:00 PM 51.2°F10.7°C 50.7°F10.4°C 98% 3.5 mph SW5.6 kmh SW 4.6 mph7.4 kmh 30.59 in1035.9 mb - 0.00 in0.0 mm 0.00 in0.0 mm
12:10 PM 51.5°F10.8°C 50.7°F10.4°C 97% 3.5 mph SW5.6 kmh SW 6.9 mph11.1 kmh 30.59 in1035.9 mb - 0.00 in0.0 mm 0.00 in0.0 mm
12:20 PM 52.0°F11.1°C 51.2°F10.7°C 97% Calm Calm 2.3 mph3.7 kmh 30.59 in1035.9 mb - 0.00 in0.0 mm 0.00 in0.0 mm
12:30 PM 52.6°F11.4°C 51.8°F11.0°C 97% 2.3 mph SW3.7 kmh SW 2.3 mph3.7 kmh 30.59 in1035.9 mb - 0.00 in0.0 mm 0.00 in0.0 mm
12:40 PM 52.6°F11.4°C 51.2°F10.7°C 95% 2.3 mph WSW3.7 kmh WSW 2.3 mph3.7 kmh 30.59 in1035.9 mb - 0.00 in0.0 mm 0.00 in0.0 mm
12:50 PM 52.7°F11.5°C 51.3°F10.7°C 95% 1.2 mph SW1.9 kmh SW 3.5 mph5.6 kmh 30.59 in1035.9 mb - 0.00 in0.0 mm 0.00 in0.0 mm
01:00 PM 52.8°F11.6°C 51.1°F10.6°C 94% 3.5 mph SW5.6 kmh SW 4.6 mph7.4 kmh 30.59 in1035.9 mb - 0.00 in0.0 mm 0.00 in0.0 mm
01:10 PM 52.9°F11.6°C 51.2°F10.7°C 94% 1.2 mph SW1.9 kmh SW 3.5 mph5.6 kmh 30.59 in1035.9 mb - 0.00 in0.0 mm 0.00 in0.0 mm
01:20 PM 53.0°F11.7°C 51.0°F10.6°C 93% 3.5 mph SW5.6 kmh SW 3.5 mph5.6 kmh 30.59 in1035.9 mb - 0.00 in0.0 mm 0.00 in0.0 mm
01:30 PM 53.0°F11.7°C 51.0°F10.6°C 93% 1.2 mph SW1.9 kmh SW 2.3 mph3.7 kmh 30.58 in1035.6 mb - 0.00 in0.0 mm 0.00 in0.0 mm
01:40 PM 53.0°F11.7°C 51.0°F10.6°C 93% 3.5 mph SW5.6 kmh SW 4.6 mph7.4 kmh 30.58 in1035.6 mb - 0.00 in0.0 mm 0.00 in0.0 mm
01:50 PM 53.0°F11.7°C 51.1°F10.6°C 93% 2.3 mph SW3.7 kmh SW 3.5 mph5.6 kmh 30.58 in1035.6 mb - 0.00 in0.0 mm 0.00 in0.0 mm
02:00 PM 53.1°F11.7°C 51.1°F10.6°C 93% Calm Calm 2.3 mph3.7 kmh 30.58 in1035.6 mb - 0.00 in0.0 mm 0.00 in0.0 mm
02:10 PM 53.2°F11.8°C 51.2°F10.7°C 93% Calm Calm -- 30.58 in1035.6 mb - 0.00 in0.0 mm 0.00 in0.0 mm
02:20 PM 53.3°F11.8°C 51.3°F10.7°C 93% 1.2 mph SW1.9 kmh SW -- 30.58 in1035.6 mb - 0.00 in0.0 mm 0.00 in0.0 mm
02:30 PM 53.4°F11.9°C 51.4°F10.8°C 93% 1.2 mph SW1.9 kmh SW 5.8 mph9.3 kmh 30.58 in1035.6 mb - 0.00 in0.0 mm 0.00 in0.0 mm
02:40 PM 53.4°F11.9°C 51.4°F10.8°C 93% Calm Calm -- 30.58 in1035.6 mb - 0.00 in0.0 mm 0.00 in0.0 mm
02:50 PM 53.4°F11.9°C 51.1°F10.6°C 92% Calm Calm -- 30.58 in1035.6 mb - 0.00 in0.0 mm 0.00 in0.0 mm
03:00 PM 53.4°F11.9°C 51.1°F10.6°C 92% 1.2 mph SW1.9 kmh SW 1.2 mph1.9 kmh 30.58 in1035.6 mb - 0.00 in0.0 mm 0.00 in0.0 mm
03:10 PM 53.3°F11.8°C 51.0°F10.6°C 92% 1.2 mph SSW1.9 kmh SSW 3.5 mph5.6 kmh 30.58 in1035.6 mb - 0.00 in0.0 mm 0.00 in0.0 mm
03:20 PM 53.2°F11.8°C 51.2°F10.7°C 93% Calm Calm -- 30.59 in1035.9 mb - 0.00 in0.0 mm 0.00 in0.0 mm
03:30 PM 53.1°F11.7°C 51.1°F10.6°C 93% Calm Calm -- 30.59 in1035.9 mb - 0.00 in0.0 mm 0.00 in0.0 mm
03:40 PM 53.2°F11.8°C 51.2°F10.7°C 93% 1.2 mph WSW1.9 kmh WSW 1.2 mph1.9 kmh 30.59 in1035.9 mb - 0.00 in0.0 mm 0.00 in0.0 mm
03:50 PM 53.2°F11.8°C 51.2°F10.7°C 93% Calm Calm 1.2 mph1.9 kmh 30.59 in1035.9 mb - 0.00 in0.0 mm 0.00 in0.0 mm
04:00 PM 53.2°F11.8°C 51.2°F10.7°C 93% Calm Calm 2.3 mph3.7 kmh 30.59 in1035.9 mb - 0.00 in0.0 mm 0.00 in0.0 mm
04:10 PM 53.2°F11.8°C 51.2°F10.7°C 93% Calm Calm -- 30.59 in1035.9 mb - 0.00 in0.0 mm 0.00 in0.0 mm
04:20 PM 53.1°F11.7°C 51.1°F10.6°C 93% Calm Calm -- 30.60 in1036.2 mb - 0.00 in0.0 mm 0.00 in0.0 mm
04:30 PM 53.1°F11.7°C 51.1°F10.6°C 93% Calm Calm -- 30.59 in1035.9 mb - 0.00 in0.0 mm 0.00 in0.0 mm
04:40 PM 53.1°F11.7°C 51.1°F10.6°C 93% Calm Calm -- 30.59 in1035.9 mb - 0.00 in0.0 mm 0.00 in0.0 mm
04:50 PM 53.0°F11.7°C 51.1°F10.6°C 93% Calm Calm -- 30.60 in1036.2 mb - 0.00 in0.0 mm 0.00 in0.0 mm
05:00 PM 53.0°F11.7°C 51.0°F10.6°C 93% Calm Calm -- 30.61 in1036.6 mb - 0.00 in0.0 mm 0.00 in0.0 mm
05:10 PM 53.0°F11.7°C 51.3°F10.7°C 94% 2.3 mph WSW3.7 kmh WSW 3.5 mph5.6 kmh 30.61 in1036.6 mb - 0.00 in0.0 mm 0.00 in0.0 mm
05:20 PM 53.0°F11.7°C 51.3°F10.7°C 94% Calm Calm 3.5 mph5.6 kmh 30.61 in1036.6 mb - 0.00 in0.0 mm 0.00 in0.0 mm
05:30 PM 52.8°F11.6°C 51.1°F10.6°C 94% Calm Calm -- 30.61 in1036.6 mb - 0.00 in0.0 mm 0.00 in0.0 mm
05:40 PM 52.7°F11.5°C 51.0°F10.6°C 94% Calm Calm -- 30.61 in1036.6 mb - 0.00 in0.0 mm 0.00 in0.0 mm
05:50 PM 52.5°F11.4°C 50.8°F10.4°C 94% Calm Calm -- 30.61 in1036.6 mb - 0.00 in0.0 mm 0.00 in0.0 mm
06:00 PM 52.4°F11.3°C 50.7°F10.4°C 94% Calm Calm -- 30.61 in1036.6 mb - 0.00 in0.0 mm 0.00 in0.0 mm
06:10 PM 52.4°F11.3°C 50.7°F10.4°C 94% Calm Calm 3.5 mph5.6 kmh 30.61 in1036.6 mb - 0.00 in0.0 mm 0.00 in0.0 mm
06:20 PM 52.3°F11.3°C 50.6°F10.3°C 94% Calm Calm -- 30.61 in1036.6 mb - 0.00 in0.0 mm 0.00 in0.0 mm
06:30 PM 52.3°F11.3°C 50.9°F10.5°C 95% Calm Calm 2.3 mph3.7 kmh 30.61 in1036.6 mb - 0.00 in0.0 mm 0.00 in0.0 mm
06:40 PM 52.3°F11.3°C 50.9°F10.5°C 95% Calm Calm -- 30.61 in1036.6 mb - 0.00 in0.0 mm 0.00 in0.0 mm
06:50 PM 52.2°F11.2°C 50.8°F10.4°C 95% Calm Calm -- 30.61 in1036.6 mb - 0.00 in0.0 mm 0.00 in0.0 mm
07:00 PM 52.1°F11.2°C 50.7°F10.4°C 95% Calm Calm -- 30.61 in1036.6 mb - 0.00 in0.0 mm 0.00 in0.0 mm
07:10 PM 52.0°F11.1°C 50.6°F10.3°C 95% 1.2 mph SW1.9 kmh SW -- 30.61 in1036.6 mb - 0.00 in0.0 mm 0.00 in0.0 mm
07:20 PM 51.9°F11.1°C 50.5°F10.3°C 95% Calm Calm -- 30.61 in1036.6 mb - 0.00 in0.0 mm 0.00 in0.0 mm
07:30 PM 51.8°F11.0°C 50.4°F10.2°C 95% Calm Calm -- 30.61 in1036.6 mb - 0.00 in0.0 mm 0.00 in0.0 mm
07:40 PM 51.8°F11.0°C 50.4°F10.2°C 95% 1.2 mph SW1.9 kmh SW 5.8 mph9.3 kmh 30.61 in1036.6 mb - 0.00 in0.0 mm 0.00 in0.0 mm
07:50 PM 51.8°F11.0°C 50.4°F10.2°C 95% Calm Calm 3.5 mph5.6 kmh 30.61 in1036.6 mb - 0.00 in0.0 mm 0.00 in0.0 mm
08:00 PM 51.7°F10.9°C 50.3°F10.2°C 95% Calm Calm -- 30.61 in1036.6 mb - 0.00 in0.0 mm 0.00 in0.0 mm
08:10 PM 51.6°F10.9°C 50.2°F10.1°C 95% Calm Calm 1.2 mph1.9 kmh 30.61 in1036.6 mb - 0.00 in0.0 mm 0.00 in0.0 mm
08:30 PM 51.5°F10.8°C 50.4°F10.2°C 96% Calm Calm 2.3 mph3.7 kmh 30.61 in1036.6 mb - 0.00 in0.0 mm 0.00 in0.0 mm
08:40 PM 51.4°F10.8°C 50.3°F10.2°C 96% 1.2 mph SW1.9 kmh SW 3.5 mph5.6 kmh 30.61 in1036.6 mb - 0.00 in0.0 mm 0.00 in0.0 mm
08:50 PM 51.4°F10.8°C 50.3°F10.2°C 96% Calm Calm -- 30.61 in1036.6 mb - 0.00 in0.0 mm 0.00 in0.0 mm
09:00 PM 51.4°F10.8°C 50.3°F10.2°C 96% Calm Calm -- 30.61 in1036.6 mb - 0.00 in0.0 mm 0.00 in0.0 mm
09:10 PM 51.4°F10.8°C 50.3°F10.2°C 96% Calm Calm -- 30.61 in1036.6 mb - 0.00 in0.0 mm 0.00 in0.0 mm
09:20 PM 51.3°F10.7°C 50.2°F10.1°C 96% Calm Calm -- 30.61 in1036.6 mb - 0.00 in0.0 mm 0.00 in0.0 mm
09:30 PM 51.2°F10.7°C 50.1°F10.1°C 96% Calm Calm 1.2 mph1.9 kmh 30.61 in1036.6 mb - 0.00 in0.0 mm 0.00 in0.0 mm
09:40 PM 51.1°F10.6°C 50.0°F10.0°C 96% Calm Calm 2.3 mph3.7 kmh 30.61 in1036.6 mb - 0.00 in0.0 mm 0.00 in0.0 mm
09:50 PM 51.1°F10.6°C 50.0°F10.0°C 96% Calm Calm -- 30.61 in1036.6 mb - 0.00 in0.0 mm 0.00 in0.0 mm
10:00 PM 51.0°F10.6°C 49.9°F9.9°C 96% Calm Calm -- 30.61 in1036.6 mb - 0.00 in0.0 mm 0.00 in0.0 mm
10:10 PM 51.0°F10.6°C 49.9°F9.9°C 96% Calm Calm -- 30.61 in1036.6 mb - 0.00 in0.0 mm 0.00 in0.0 mm
10:20 PM 50.9°F10.5°C 49.8°F9.9°C 96% Calm Calm -- 30.61 in1036.6 mb - 0.00 in0.0 mm 0.00 in0.0 mm
10:30 PM 50.9°F10.5°C 49.8°F9.9°C 96% Calm Calm -- 30.61 in1036.6 mb - 0.00 in0.0 mm 0.00 in0.0 mm
10:40 PM 50.9°F10.5°C 49.8°F9.9°C 96% 1.2 mph SW1.9 kmh SW 4.6 mph7.4 kmh 30.61 in1036.6 mb - 0.00 in0.0 mm 0.00 in0.0 mm
10:50 PM 50.9°F10.5°C 49.8°F9.9°C 96% Calm Calm -- 30.61 in1036.6 mb - 0.00 in0.0 mm 0.00 in0.0 mm
11:00 PM 50.9°F10.5°C 49.8°F9.9°C 96% Calm Calm -- 30.61 in1036.6 mb - 0.00 in0.0 mm 0.00 in0.0 mm
11:10 PM 50.9°F10.5°C 49.8°F9.9°C 96% Calm Calm -- 30.61 in1036.6 mb - 0.00 in0.0 mm 0.00 in0.0 mm
11:20 PM 50.8°F10.4°C 49.7°F9.8°C 96% Calm Calm -- 30.61 in1036.6 mb - 0.00 in0.0 mm 0.00 in0.0 mm
11:30 PM 50.8°F10.4°C 49.7°F9.8°C 96% Calm Calm -- 30.61 in1036.6 mb - 0.00 in0.0 mm 0.00 in0.0 mm
11:40 PM 50.8°F10.4°C 50.0°F10.0°C 97% Calm Calm 1.2 mph1.9 kmh 30.62 in1036.9 mb - 0.00 in0.0 mm 0.00 in0.0 mm
11:50 PM 50.9°F10.5°C 50.1°F10.1°C 97% Calm Calm 3.5 mph5.6 kmh 30.62 in1036.9 mb - 0.00 in0.0 mm 0.00 in0.0 mm